Time;durP1;ratioP1;P1;durP2;ratioP2;P2;SDS_P1;SDS_P2;PMS_P1;PMS_P2;Temp;Humidity;BMP_temperature;BMP_pressure;BME280_temperature;BME280_humidity;BME280_pressure;Samples;Min_cycle;Max_cycle;Signal;HPM_P1;HPM_P2
2022/05/17 00:01:38;;;;;;;4.10;3.28;;;;;;;16.17;93.72;97069.81;5077654;28;20278;-49
2022/05/17 00:04:06;;;;;;;5.97;3.70;;;;;;;16.10;94.29;97063.47;5061289;28;20207;-51
2022/05/17 00:06:32;;;;;;;6.60;3.50;;;;;;;16.02;95.21;97059.97;5057936;28;20267;-50
2022/05/17 00:08:59;;;;;;;7.90;3.73;;;;;;;16.00;94.55;97062.81;5058349;28;20230;-49
2022/05/17 00:11:28;;;;;;;5.73;3.37;;;;;;;16.02;94.33;97057.31;5057599;28;20203;-50
2022/05/17 00:13:56;;;;;;;5.60;3.40;;;;;;;15.98;95.74;97064.00;5057713;28;21198;-50
2022/05/17 00:16:23;;;;;;;4.40;3.58;;;;;;;16.06;94.09;97063.97;5057744;28;20213;-50
2022/05/17 00:18:49;;;;;;;5.57;3.40;;;;;;;16.00;94.35;97059.31;5057551;28;20211;-50
2022/05/17 00:21:17;;;;;;;4.47;3.47;;;;;;;15.91;94.98;97059.31;5056891;28;20231;-50
2022/05/17 00:23:44;;;;;;;4.03;3.70;;;;;;;15.80;95.73;97056.94;5057228;28;20219;-49
2022/05/17 00:26:11;;;;;;;5.73;3.83;;;;;;;15.86;95.72;97068.81;5057640;28;20226;-50
2022/05/17 00:28:39;;;;;;;5.67;3.63;;;;;;;15.77;95.96;97057.28;5057175;28;20547;-50
2022/05/17 00:31:07;;;;;;;4.87;3.63;;;;;;;15.77;96.18;97059.13;5056496;28;20207;-49
2022/05/17 00:33:34;;;;;;;6.40;3.87;;;;;;;15.81;95.47;97050.63;5057002;28;20226;-48
2022/05/17 00:36:01;;;;;;;6.07;3.90;;;;;;;15.81;95.10;97041.78;5057304;28;20200;-49
2022/05/17 00:38:29;;;;;;;4.17;3.40;;;;;;;15.78;95.19;97050.97;5057399;28;20207;-49
2022/05/17 00:40:56;;;;;;;4.03;3.47;;;;;;;15.78;95.20;97048.28;5057006;28;20231;-49
2022/05/17 00:43:29;;;;;;;4.73;3.60;;;;;;;15.76;95.65;97050.31;5057138;28;20210;-49
2022/05/17 00:46:00;;;;;;;5.87;3.90;;;;;;;15.70;96.06;97048.28;5056524;28;20628;-50
2022/05/17 00:48:26;;;;;;;5.65;3.60;;;;;;;15.70;96.09;97045.63;5057104;28;20218;-50
2022/05/17 00:50:54;;;;;;;4.27;3.60;;;;;;;15.62;97.06;97048.28;5057123;28;20206;-49
2022/05/17 00:53:23;;;;;;;6.03;3.93;;;;;;;15.64;96.79;97046.28;5056450;28;20214;-49
2022/05/17 00:55:56;;;;;;;7.57;3.70;;;;;;;15.70;95.98;97053.63;5057054;28;20203;-50
2022/05/17 00:58:27;;;;;;;3.50;3.20;;;;;;;15.64;96.90;97051.63;5057102;28;20203;-49
2022/05/17 01:01:02;;;;;;;4.87;3.90;;;;;;;15.64;97.11;97050.78;5054958;28;20227;-49
2022/05/17 01:03:30;;;;;;;4.20;3.80;;;;;;;15.59;96.85;97040.59;5056168;28;20226;-49
2022/05/17 01:05:58;;;;;;;5.57;3.90;;;;;;;15.54;98.12;97040.28;5056625;28;20199;-50
2022/05/17 01:08:25;;;;;;;4.97;4.10;;;;;;;15.50;97.85;97038.94;5057245;28;20215;-49
2022/05/17 01:10:55;;;;;;;4.17;3.77;;;;;;;15.47;97.90;97033.06;5057074;28;20611;-49
2022/05/17 01:16:06;;;;;;;6.47;4.03;;;;;;;15.43;98.32;97036.06;5056478;28;20205;-49
2022/05/17 01:18:35;;;;;;;4.82;3.95;;;;;;;15.38;98.29;97040.19;5056404;28;20235;-49
2022/05/17 01:21:06;;;;;;;6.30;4.10;;;;;;;15.34;99.28;97033.50;5056654;28;20254;-49
2022/05/17 01:23:32;;;;;;;4.05;3.65;;;;;;;15.34;99.07;97028.19;5056623;28;20261;-49
2022/05/17 01:25:59;;;;;;;4.60;4.20;;;;;;;15.33;98.92;97022.03;5057436;28;20207;-50
2022/05/17 01:28:28;;;;;;;6.28;4.00;;;;;;;15.33;99.41;97026.53;5057411;28;20207;-49
2022/05/17 01:31:03;;;;;;;4.00;3.70;;;;;;;15.41;97.89;97026.53;5061270;28;20195;-50
2022/05/17 01:33:31;;;;;;;5.05;4.50;;;;;;;15.32;99.09;97027.53;5070896;28;20203;-49
2022/05/17 01:35:59;;;;;;;5.20;3.83;;;;;;;15.24;99.81;97022.16;5060117;28;20210;-50
2022/05/17 01:38:28;;;;;;;5.37;4.00;;;;;;;15.23;100.00;97023.19;5059796;28;20207;-49
2022/05/17 01:40:55;;;;;;;4.40;4.00;;;;;;;15.20;100.00;97018.16;5056290;28;20222;-49
2022/05/17 01:43:22;;;;;;;4.40;4.00;;;;;;;15.23;99.81;97026.66;5060092;28;20207;-50
2022/05/17 01:45:53;;;;;;;4.80;3.83;;;;;;;15.26;99.43;97021.03;5060372;28;20221;-48
2022/05/17 01:48:20;;;;;;;6.53;4.18;;;;;;;15.21;99.46;97018.00;5063567;28;20218;-49
2022/05/17 01:50:47;;;;;;;5.00;3.92;;;;;;;15.22;99.33;97018.84;5069251;28;20218;-49
2022/05/17 01:53:15;;;;;;;3.87;3.50;;;;;;;15.24;99.53;97016.84;5070485;28;20210;-50
2022/05/17 01:55:43;;;;;;;7.13;4.00;;;;;;;15.17;100.00;97021.16;5069223;28;20199;-49
2022/05/17 01:58:10;;;;;;;6.50;4.43;;;;;;;15.16;100.00;97022.16;5069824;28;20207;-50
2022/05/17 02:00:38;;;;;;;4.00;3.70;;;;;;;15.07;100.00;97023.97;5057131;28;20211;-50
2022/05/17 02:03:07;;;;;;;4.27;3.97;;;;;;;15.03;100.00;97030.59;5067717;28;20235;-50
2022/05/17 02:05:34;;;;;;;4.17;3.83;;;;;;;14.98;100.00;97026.75;5068966;28;20230;-50
2022/05/17 02:08:02;;;;;;;6.30;3.80;;;;;;;14.97;100.00;97025.09;5068587;28;20202;-50
2022/05/17 02:10:28;;;;;;;4.00;3.67;;;;;;;14.98;100.00;97032.09;5062728;28;20207;-49
2022/05/17 02:12:58;;;;;;;7.18;3.97;;;;;;;14.98;100.00;97030.28;5056471;28;20194;-49
2022/05/17 02:15:25;;;;;;;4.77;3.70;;;;;;;14.91;100.00;97027.38;5074196;28;20226;-52
2022/05/17 02:17:53;;;;;;;6.10;3.70;;;;;;;14.93;100.00;97027.25;5061738;28;20214;-50
2022/05/17 02:20:20;;;;;;;6.73;4.53;;;;;;;14.88;100.00;97022.38;5063344;28;20210;-50
2022/05/17 02:22:49;;;;;;;4.90;4.20;;;;;;;14.84;100.00;97028.22;5064607;28;20230;-50
2022/05/17 02:25:16;;;;;;;4.33;3.93;;;;;;;14.88;100.00;97030.38;5069970;28;20238;-50
2022/05/17 02:27:44;;;;;;;4.83;4.03;;;;;;;14.87;100.00;97026.06;5066795;28;20207;-50
2022/05/17 02:30:13;;;;;;;6.33;3.60;;;;;;;14.86;100.00;97031.53;5064615;28;20233;-50
2022/05/17 02:32:40;;;;;;;6.23;4.50;;;;;;;14.78;100.00;97032.31;5066955;28;20199;-50
2022/05/17 02:35:09;;;;;;;7.10;4.10;;;;;;;14.76;100.00;97026.34;5066547;28;20207;-50
2022/05/17 02:37:39;;;;;;;4.38;3.97;;;;;;;14.75;100.00;97031.81;5061516;28;20226;-49
2022/05/17 02:40:07;;;;;;;4.17;3.50;;;;;;;14.73;100.00;97034.66;5061836;28;20203;-49
2022/05/17 02:42:35;;;;;;;6.57;4.37;;;;;;;14.73;100.00;97031.16;5055236;28;20583;-49
2022/05/17 02:45:04;;;;;;;5.80;4.13;;;;;;;14.69;100.00;97041.28;5055316;28;20211;-50
2022/05/17 02:47:36;;;;;;;6.67;3.97;;;;;;;14.73;100.00;97034.66;5054818;28;20654;-50
2022/05/17 02:50:05;;;;;;;5.50;3.93;;;;;;;14.75;100.00;97031.81;5042251;28;20344;-49
2022/05/17 02:52:32;;;;;;;4.43;4.00;;;;;;;14.62;100.00;97034.94;5054037;28;20278;-50
2022/05/17 02:54:59;;;;;;;5.80;4.17;;;;;;;14.56;100.00;97040.84;5054470;28;20226;-50
2022/05/17 02:57:26;;;;;;;5.50;4.27;;;;;;;14.62;100.00;97037.59;5077449;28;20191;-49
2022/05/17 02:59:57;;;;;;;4.80;4.30;;;;;;;14.63;100.00;97036.56;5063382;28;20245;-49
2022/05/17 03:02:24;;;;;;;4.43;4.00;;;;;;;14.57;100.00;97045.19;5064253;28;20207;-50
2022/05/17 03:04:52;;;;;;;4.13;3.77;;;;;;;14.54;100.00;97044.69;5077345;28;20249;-50
2022/05/17 03:07:21;;;;;;;5.30;4.00;;;;;;;14.54;100.00;97039.34;5077301;28;20211;-49
2022/05/17 03:09:48;;;;;;;5.27;3.77;;;;;;;14.53;100.00;97045.66;5054321;28;20311;-49
2022/05/17 03:12:16;;;;;;;4.20;3.80;;;;;;;14.53;100.00;97051.81;5047056;28;20207;-50
2022/05/17 03:14:42;;;;;;;5.70;4.13;;;;;;;14.52;100.00;97049.34;5054564;28;20211;-49
2022/05/17 03:17:13;;;;;;;4.53;3.93;;;;;;;14.47;100.00;97051.63;5054371;28;20211;-49
2022/05/17 03:19:39;;;;;;;5.33;4.37;;;;;;;14.47;100.00;97054.28;5054485;28;20218;-49
2022/05/17 03:22:10;;;;;;;4.53;4.07;;;;;;;14.42;100.00;97055.59;5054042;28;20288;-49
2022/05/17 03:24:38;;;;;;;4.73;4.33;;;;;;;14.43;100.00;97053.75;5056329;28;20602;-49
2022/05/17 03:27:07;;;;;;;5.13;4.63;;;;;;;14.48;100.00;97056.81;5056845;28;20210;-49
2022/05/17 03:29:35;;;;;;;4.47;4.10;;;;;;;14.48;100.00;97056.81;5057732;28;20207;-49
2022/05/17 03:32:01;;;;;;;5.33;4.20;;;;;;;14.50;100.00;97057.47;5058536;28;20207;-50
2022/05/17 03:34:31;;;;;;;7.23;4.37;;;;;;;14.47;100.00;97055.13;5058216;28;20206;-49
2022/05/17 03:36:58;;;;;;;5.90;4.20;;;;;;;14.39;100.00;97052.41;5058099;28;20203;-49
2022/05/17 03:39:28;;;;;;;6.63;3.93;;;;;;;14.36;100.00;97058.88;5058157;28;20635;-50
2022/05/17 03:41:56;;;;;;;5.37;4.37;;;;;;;14.35;100.00;97056.38;5058062;28;20215;-50
2022/05/17 03:44:25;;;;;;;5.10;4.27;;;;;;;14.34;100.00;97062.69;5058439;28;20210;-49
2022/05/17 03:46:51;;;;;;;5.57;4.30;;;;;;;14.33;100.00;97053.84;5057834;28;20214;-50
2022/05/17 03:49:18;;;;;;;4.70;4.27;;;;;;;14.36;100.00;97053.56;5057578;28;20651;-50
2022/05/17 03:51:47;;;;;;;5.60;4.50;;;;;;;14.34;100.00;97049.41;5057120;28;20199;-50
2022/05/17 03:54:17;;;;;;;4.57;4.13;;;;;;;14.34;100.00;97060.88;5051636;28;20237;-48
2022/05/17 03:56:47;;;;;;;4.63;4.23;;;;;;;14.39;100.00;97052.41;5057963;28;20203;-50
2022/05/17 03:59:15;;;;;;;4.57;4.17;;;;;;;14.39;100.00;97063.03;5057681;28;20238;-49
2022/05/17 04:01:42;;;;;;;5.13;4.63;;;;;;;14.41;100.00;97061.09;5057549;28;20211;-49
2022/05/17 04:04:08;;;;;;;4.83;4.00;;;;;;;14.41;100.00;97063.75;5057828;28;20207;-50
2022/05/17 04:06:35;;;;;;;4.40;4.00;;;;;;;14.41;100.00;97058.41;5057483;28;20207;-48
2022/05/17 04:09:02;;;;;;;4.47;4.07;;;;;;;14.45;100.00;97057.13;5057609;28;20217;-50
2022/05/17 04:11:29;;;;;;;6.23;4.20;;;;;;;14.39;100.00;97055.91;5053628;28;20543;-49
2022/05/17 04:13:57;;;;;;;4.00;3.60;;;;;;;14.44;100.00;97063.44;5053657;28;20639;-50
2022/05/17 04:16:23;;;;;;;4.70;4.17;;;;;;;14.48;100.00;97062.13;5056882;28;20537;-50
2022/05/17 04:18:50;;;;;;;4.90;4.17;;;;;;;14.50;100.00;97067.28;5057321;28;20217;-49
2022/05/17 04:21:16;;;;;;;4.43;4.03;;;;;;;14.51;100.00;97067.13;5057322;28;20214;-48
2022/05/17 04:23:44;;;;;;;6.40;4.13;;;;;;;14.55;100.00;97060.50;5043748;28;20234;-49
2022/05/17 04:26:12;;;;;;;6.50;4.47;;;;;;;14.65;100.00;97069.22;5056418;28;20517;-50
2022/05/17 04:28:39;;;;;;;5.30;4.40;;;;;;;14.85;100.00;97065.31;5057209;28;20211;-49
2022/05/17 04:31:08;;;;;;;5.03;4.53;;;;;;;15.09;100.00;97069.91;5061163;28;20215;-49
2022/05/17 04:33:37;;;;;;;4.50;4.10;;;;;;;15.32;100.00;97072.81;5065975;28;20198;-49
2022/05/17 04:36:06;;;;;;;4.03;3.70;;;;;;;15.70;100.00;97066.94;5076141;28;20260;-50
2022/05/17 04:38:32;;;;;;;5.03;4.23;;;;;;;16.35;99.20;97073.16;5067358;28;20207;-49
2022/05/17 04:40:59;;;;;;;4.90;4.50;;;;;;;16.86;95.30;97066.53;5057539;28;20211;-50
2022/05/17 04:43:29;;;;;;;5.30;4.40;;;;;;;17.24;92.71;97064.09;5057097;28;20667;-49
2022/05/17 04:45:56;;;;;;;5.70;4.30;;;;;;;17.62;90.79;97062.41;5056983;28;20294;-50
2022/05/17 04:48:25;;;;;;;4.30;4.00;;;;;;;18.13;85.58;97072.41;5057099;28;20207;-49
2022/05/17 04:50:54;;;;;;;6.13;4.23;;;;;;;18.15;85.93;97065.03;5056859;28;20239;-49
2022/05/17 04:53:21;;;;;;;5.90;4.53;;;;;;;18.44;85.40;97071.47;5046524;28;20196;-49
2022/05/17 04:55:49;;;;;;;5.55;4.45;;;;;;;18.45;83.84;97070.47;5056760;28;20214;-49
2022/05/17 04:58:17;;;;;;;6.65;4.30;;;;;;;18.27;85.32;97085.03;5057449;28;20215;-49
2022/05/17 05:00:44;;;;;;;4.43;4.00;;;;;;;18.54;85.87;97080.09;5056735;28;20647;-49
2022/05/17 05:03:10;;;;;;;6.15;4.55;;;;;;;19.03;83.42;97081.25;5056708;28;20671;-50
2022/05/17 05:05:40;;;;;;;5.47;4.07;;;;;;;19.66;79.18;97077.16;5056851;28;20199;-49
2022/05/17 05:08:09;;;;;;;5.75;4.50;;;;;;;19.62;80.82;97087.44;5057842;28;20217;-49
2022/05/17 05:10:36;;;;;;;4.95;3.97;;;;;;;19.65;80.82;97081.69;5057348;28;20279;-49
2022/05/17 05:13:02;;;;;;;4.53;4.13;;;;;;;19.66;80.78;97077.97;5049922;28;20294;-49
2022/05/17 05:15:29;;;;;;;7.95;4.30;;;;;;;19.67;80.94;97090.38;5056781;28;20218;-49
2022/05/17 05:17:56;;;;;;;4.07;3.75;;;;;;;19.76;81.32;97091.94;5057030;28;20213;-51
2022/05/17 05:20:23;;;;;;;8.43;4.25;;;;;;;19.88;79.25;97087.72;5056437;28;20514;-50
2022/05/17 05:22:53;;;;;;;5.68;3.95;;;;;;;19.78;79.68;97092.56;5056151;28;20226;-50
2022/05/17 05:25:20;;;;;;;7.45;4.45;;;;;;;19.74;79.10;97101.19;5055908;28;20239;-49
2022/05/17 05:27:47;;;;;;;8.52;4.20;;;;;;;20.13;78.48;97090.03;5056768;28;20290;-51
2022/05/17 05:30:18;;;;;;;4.25;3.78;;;;;;;20.28;79.04;97093.53;5056322;28;20532;-51
2022/05/17 05:32:47;;;;;;;6.53;4.20;;;;;;;20.38;75.57;97094.03;5057060;28;20199;-49
2022/05/17 05:35:14;;;;;;;7.65;4.18;;;;;;;20.71;76.59;97095.16;5055792;28;20627;-49
2022/05/17 05:37:41;;;;;;;7.75;4.15;;;;;;;20.79;74.64;97092.31;5055901;28;20226;-49
2022/05/17 05:40:12;;;;;;;8.48;3.95;;;;;;;20.72;74.05;97095.97;5056494;28;20206;-49
2022/05/17 05:42:42;;;;;;;4.28;3.88;;;;;;;21.09;73.98;97092.91;5056094;28;20258;-50
2022/05/17 05:45:11;;;;;;;8.77;3.88;;;;;;;20.88;72.98;97095.66;5056048;28;20588;-51
2022/05/17 05:47:38;;;;;;;4.72;4.05;;;;;;;21.15;72.23;97088.66;5055507;28;20218;-50
2022/05/17 05:50:05;;;;;;;3.92;3.55;;;;;;;21.40;71.41;97100.56;5055922;28;20203;-50
2022/05/17 05:52:34;;;;;;;8.43;3.63;;;;;;;21.49;71.28;97094.00;5055037;28;20635;-50
2022/05/17 05:55:03;;;;;;;3.40;3.10;;;;;;;21.66;69.83;97094.47;5055778;28;20746;-50
2022/05/17 05:57:33;;;;;;;3.85;3.47;;;;;;;21.78;68.41;97099.09;5055884;28;20226;-50
2022/05/17 06:00:00;;;;;;;3.53;3.33;;;;;;;21.50;68.08;97094.81;5055734;28;20211;-50
2022/05/17 06:02:26;;;;;;;4.53;3.50;;;;;;;21.75;69.26;97104.03;5055808;28;20227;-50
2022/05/17 06:04:53;;;;;;;5.15;3.42;;;;;;;21.84;67.50;97095.56;5055550;28;20210;-50
2022/05/17 06:07:20;;;;;;;4.38;3.38;;;;;;;22.22;67.05;97100.44;5055144;28;20214;-50
2022/05/17 06:09:49;;;;;;;4.15;3.78;;;;;;;22.17;66.69;97102.94;5055188;28;20214;-50
2022/05/17 06:12:16;;;;;;;6.45;3.60;;;;;;;22.49;67.83;97102.16;5055531;28;20199;-50
2022/05/17 06:14:44;;;;;;;5.70;3.30;;;;;;;22.57;64.95;97104.63;5055748;28;20233;-50
2022/05/17 06:17:11;;;;;;;4.70;3.55;;;;;;;22.67;65.75;97102.38;5055101;28;20206;-50
2022/05/17 06:19:37;;;;;;;8.32;3.25;;;;;;;23.00;65.89;97104.22;5055460;28;20514;-50
2022/05/17 06:22:05;;;;;;;6.00;3.40;;;;;;;23.46;62.74;97099.59;5055385;28;20214;-50
2022/05/17 06:24:32;;;;;;;6.80;3.65;;;;;;;23.23;61.51;97104.63;5055205;28;20273;-50
2022/05/17 06:26:59;;;;;;;4.95;3.47;;;;;;;23.44;60.25;97104.38;5055810;28;20218;-50
2022/05/17 06:29:26;;;;;;;4.30;3.15;;;;;;;23.23;60.87;97107.31;5055740;28;20294;-49
2022/05/17 06:31:54;;;;;;;5.97;3.08;;;;;;;23.20;61.17;97105.84;5055268;28;20242;-50
2022/05/17 06:34:20;;;;;;;4.45;3.20;;;;;;;23.46;61.06;97109.56;5055150;28;20206;-49
2022/05/17 06:36:47;;;;;;;5.55;3.53;;;;;;;23.71;59.68;97114.03;5057962;28;20210;-49
2022/05/17 06:39:17;;;;;;;5.28;3.10;;;;;;;23.62;60.82;97115.34;5073404;28;20214;-50
2022/05/17 06:41:47;;;;;;;6.65;3.20;;;;;;;23.81;59.42;97112.78;5069408;28;20246;-50
2022/05/17 06:44:14;;;;;;;6.95;3.00;;;;;;;23.87;59.46;97114.59;5056660;28;20750;-49
2022/05/17 06:46:40;;;;;;;3.53;2.75;;;;;;;23.84;59.15;97112.34;5072807;28;20256;-51
2022/05/17 06:49:08;;;;;;;4.30;3.00;;;;;;;24.27;56.51;97107.94;5072673;28;20210;-50
2022/05/17 06:51:39;;;;;;;3.78;2.95;;;;;;;23.90;57.17;97116.88;5058307;28;20533;-51
2022/05/17 06:54:07;;;;;;;4.30;2.80;;;;;;;23.66;55.67;97115.75;5071319;28;20210;-50
2022/05/17 06:56:34;;;;;;;5.30;3.10;;;;;;;24.09;56.08;97110.56;5052586;28;20203;-50
2022/05/17 06:59:02;;;;;;;5.18;3.05;;;;;;;24.32;53.90;97110.00;5056476;28;20211;-50
2022/05/17 07:01:30;;;;;;;7.93;3.10;;;;;;;24.69;54.99;97111.84;5058968;28;20211;-50
2022/05/17 07:03:59;;;;;;;7.85;3.13;;;;;;;24.82;55.88;97110.88;5059341;28;20231;-50
2022/05/17 07:06:29;;;;;;;3.60;2.90;;;;;;;25.08;54.67;97110.69;5059053;28;20206;-50
2022/05/17 07:08:56;;;;;;;3.20;2.90;;;;;;;25.19;52.17;97112.63;5059165;28;20218;-51
2022/05/17 07:14:06;;;;;;;4.72;2.80;;;;;;;25.82;49.53;97109.69;5058633;28;20284;-50
2022/05/17 07:16:36;;;;;;;5.60;2.85;;;;;;;25.50;53.47;97112.53;5058835;28;20199;-49
2022/05/17 07:19:04;;;;;;;6.20;2.65;;;;;;;25.35;53.16;97113.94;5058796;28;20237;-50
2022/05/17 07:21:33;;;;;;;5.20;2.72;;;;;;;25.56;50.10;97106.25;5058877;28;20203;-50
2022/05/17 07:23:59;;;;;;;4.30;2.83;;;;;;;25.17;51.56;97112.88;5045607;28;20231;-50
2022/05/17 07:26:26;;;;;;;6.30;3.03;;;;;;;25.46;51.74;97107.78;5058736;28;20206;-50
2022/05/17 07:28:53;;;;;;;5.82;2.88;;;;;;;25.75;49.76;97117.91;5045669;28;20218;-49
2022/05/17 07:31:20;;;;;;;8.52;3.30;;;;;;;25.71;50.42;97111.28;5058695;28;20221;-49
2022/05/17 07:33:47;;;;;;;6.93;3.50;;;;;;;25.36;50.30;97111.03;5059654;28;20214;-51
2022/05/17 07:36:16;;;;;;;5.75;3.17;;;;;;;26.08;53.20;97107.44;5059995;28;20536;-50
2022/05/17 07:38:44;;;;;;;5.38;3.50;;;;;;;26.02;50.84;97115.69;5058571;28;20199;-49
2022/05/17 07:41:10;;;;;;;6.57;3.72;;;;;;;25.93;49.86;97108.94;5057141;28;20199;-50
2022/05/17 07:43:38;;;;;;;4.95;3.53;;;;;;;26.35;52.03;97117.97;5058606;28;20382;-50
2022/05/17 07:46:05;;;;;;;9.68;4.13;;;;;;;26.21;51.43;97106.50;5057728;28;20213;-49
2022/05/17 07:48:31;;;;;;;8.63;4.57;;;;;;;26.20;52.55;97112.97;5058424;28;20218;-50
2022/05/17 07:50:58;;;;;;;4.40;3.83;;;;;;;26.44;50.02;97114.69;5058259;28;20207;-52
2022/05/17 07:53:25;;;;;;;5.32;4.20;;;;;;;26.26;49.67;97111.19;5058131;28;20196;-50
2022/05/17 07:55:52;;;;;;;5.03;3.88;;;;;;;26.49;50.58;97120.25;5058311;28;20207;-51
2022/05/17 07:58:20;;;;;;;4.57;3.97;;;;;;;26.04;51.07;97121.72;5058548;28;20207;-49
2022/05/17 08:00:47;;;;;;;4.45;4.05;;;;;;;26.27;49.97;97121.00;5057705;28;20703;-50
2022/05/17 08:03:15;;;;;;;7.78;3.95;;;;;;;26.36;49.02;97115.00;5058047;28;20292;-50
2022/05/17 08:05:42;;;;;;;6.55;4.63;;;;;;;26.32;47.92;97119.28;5058216;28;20207;-51
2022/05/17 08:08:09;;;;;;;7.57;3.95;;;;;;;26.09;51.11;97111.81;5057850;28;20209;-50
2022/05/17 08:10:35;;;;;;;6.57;3.80;;;;;;;26.18;52.71;97099.63;5056314;28;20555;-51
2022/05/17 08:13:05;;;;;;;5.28;4.20;;;;;;;26.38;49.19;97102.06;5058044;28;20658;-50
2022/05/17 08:15:32;;;;;;;4.03;3.65;;;;;;;26.76;49.08;97103.56;5056855;28;20246;-51
2022/05/17 08:18:01;;;;;;;9.68;4.35;;;;;;;26.49;49.01;97109.41;5057846;28;20213;-51
2022/05/17 08:20:28;;;;;;;5.97;4.00;;;;;;;26.51;51.06;97095.59;5057643;28;20221;-50
2022/05/17 08:22:57;;;;;;;6.25;3.55;;;;;;;26.76;47.79;97098.13;5057375;28;20203;-51
2022/05/17 08:28:09;;;;;;;5.35;3.97;;;;;;;27.05;50.12;97102.69;5057297;28;20272;-50
2022/05/17 08:30:38;;;;;;;7.05;3.78;;;;;;;26.89;49.28;97087.91;5057714;28;20199;-50
2022/05/17 08:33:16;;;;;;;6.47;3.28;;;;;;;27.37;48.29;97095.00;5057559;28;20218;-50
2022/05/17 08:35:49;;;;;;;6.03;3.80;;;;;;;26.90;45.75;97084.13;5057443;28;20199;-51
2022/05/17 08:38:17;;;;;;;7.65;4.00;;;;;;;27.06;47.05;97093.47;5057200;28;20195;-51
2022/05/17 08:41:05;;;;;;;6.53;3.80;;;;;;;27.33;46.32;97091.91;5057237;28;20206;-50
2022/05/17 08:43:48;;;;;;;5.95;4.20;;;;;;;27.19;47.76;97094.06;5044716;28;20207;-50
2022/05/17 08:46:42;;;;;;;7.63;3.47;;;;;;;27.71;43.84;97085.97;5055953;28;20202;-51
2022/05/17 08:49:17;;;;;;;4.00;3.15;;;;;;;27.26;44.10;97091.22;5056812;28;20195;-49
2022/05/17 08:51:48;;;;;;;4.82;3.33;;;;;;;27.63;45.53;97079.00;5056935;28;20203;-50
2022/05/17 08:54:20;;;;;;;3.45;2.50;;;;;;;27.65;43.01;97081.50;5056648;28;20230;-50
2022/05/17 08:56:50;;;;;;;2.92;2.17;;;;;;;27.70;41.59;97085.13;5056920;28;20253;-49
2022/05/17 08:59:21;;;;;;;4.03;2.40;;;;;;;27.55;41.67;97087.56;5072782;28;20589;-49
2022/05/17 09:01:54;;;;;;;5.05;2.78;;;;;;;28.02;40.64;97082.78;5056326;28;20207;-50
2022/05/17 09:04:52;;;;;;;4.20;2.97;;;;;;;28.13;40.46;97079.22;5058783;28;20270;-51
2022/05/17 09:07:23;;;;;;;3.50;2.38;;;;;;;27.88;41.59;97083.34;5058417;28;20203;-50
2022/05/17 09:10:05;;;;;;;3.00;2.65;;;;;;;27.48;40.33;97076.00;5060077;28;20214;-51
2022/05/17 09:12:40;;;;;;;3.70;2.70;;;;;;;27.78;42.21;97077.66;5059137;28;20199;-49
2022/05/17 09:15:13;;;;;;;5.72;3.00;;;;;;;27.72;40.84;97084.06;5060141;28;20199;-51
2022/05/17 09:17:40;;;;;;;3.55;2.30;;;;;;;28.12;43.59;97079.50;5056916;28;20336;-49
2022/05/17 09:20:09;;;;;;;5.72;2.67;;;;;;;28.14;40.12;97070.00;5056995;28;20217;-49
2022/05/17 09:22:36;;;;;;;5.15;2.95;;;;;;;28.22;43.49;97071.50;5061691;28;20207;-50
2022/05/17 09:25:14;;;;;;;3.83;2.55;;;;;;;28.60;39.53;97068.94;5061773;28;20249;-50
2022/05/17 09:27:41;;;;;;;3.90;2.70;;;;;;;28.52;39.30;97072.03;5073548;28;20199;-50
2022/05/17 09:30:12;;;;;;;4.00;2.65;;;;;;;28.87;40.77;97069.13;5067525;28;20222;-51
2022/05/17 09:32:42;;;;;;;4.78;2.80;;;;;;;28.48;40.46;97068.19;5065654;28;20192;-50
2022/05/17 09:35:15;;;;;;;5.90;2.72;;;;;;;28.49;39.80;97069.81;5073553;28;20199;-50
2022/05/17 09:37:44;;;;;;;5.65;2.95;;;;;;;28.41;41.91;97064.78;5075912;28;20207;-51
2022/05/17 09:40:15;;;;;;;4.53;3.15;;;;;;;28.27;41.70;97060.72;5061615;28;20239;-51
2022/05/17 09:42:53;;;;;;;5.50;2.65;;;;;;;28.51;42.28;97051.38;5062784;28;20259;-51
2022/05/17 09:45:22;;;;;;;6.20;2.88;;;;;;;27.99;39.64;97047.94;5060041;28;20207;-51
2022/05/17 09:47:56;;;;;;;2.90;2.42;;;;;;;28.18;40.12;97052.13;5069502;28;20260;-50
2022/05/17 09:53:10;;;;;;;4.80;3.17;;;;;;;28.43;39.88;97051.75;5068229;28;20221;-51
2022/05/17 09:55:43;;;;;;;3.45;2.92;;;;;;;28.28;41.49;97047.94;5061156;28;20230;-50
2022/05/17 09:58:11;;;;;;;6.13;2.75;;;;;;;28.51;40.13;97042.38;5055822;28;20691;-50
2022/05/17 10:00:51;;;;;;;4.20;3.00;;;;;;;28.52;41.51;97044.84;5055557;28;20258;-48
2022/05/17 10:03:28;;;;;;;3.40;2.90;;;;;;;28.60;40.36;97041.72;5059706;28;20207;-51
2022/05/17 10:05:57;;;;;;;4.03;2.80;;;;;;;28.52;39.41;97039.38;5055667;28;20595;-50
2022/05/17 10:08:37;;;;;;;3.72;2.80;;;;;;;28.28;39.63;97032.44;5055642;28;20200;-51
2022/05/17 10:11:18;;;;;;;4.63;3.15;;;;;;;28.44;40.89;97037.09;5055690;28;20233;-51
2022/05/17 10:14:15;;;;;;;6.43;2.90;;;;;;;28.77;42.70;97030.84;5051110;28;20203;-50
2022/05/17 10:16:48;;;;;;;2.95;2.63;;;;;;;28.62;39.50;97027.88;5043505;28;20206;-51
2022/05/17 10:19:20;;;;;;;3.25;2.55;;;;;;;28.58;40.47;97024.81;5043010;28;20214;-52
2022/05/17 10:21:52;;;;;;;3.03;2.70;;;;;;;28.71;41.02;97018.22;5059534;28;20226;-50
2022/05/17 10:24:24;;;;;;;2.88;2.67;;;;;;;28.74;42.10;97016.91;5074623;28;20238;-50
2022/05/17 10:26:53;;;;;;;5.07;3.10;;;;;;;28.46;42.15;97017.78;5068727;28;20217;-51
2022/05/17 10:29:27;;;;;;;5.38;2.45;;;;;;;27.63;40.85;97019.22;5058237;28;20801;-49
2022/05/17 10:32:01;;;;;;;4.43;2.83;;;;;;;27.13;42.44;97004.56;5075399;28;20202;-51
2022/05/17 10:34:43;;;;;;;4.18;2.92;;;;;;;27.59;44.01;97003.66;5062678;28;20238;-51
2022/05/17 10:37:14;;;;;;;4.82;2.75;;;;;;;27.84;42.84;97003.34;5062337;28;20207;-53
2022/05/17 10:39:48;;;;;;;3.85;3.10;;;;;;;27.88;41.65;96993.63;5055330;28;20206;-50
2022/05/17 10:42:15;;;;;;;2.92;2.70;;;;;;;28.08;43.63;97000.28;5054867;28;20209;-50
2022/05/17 10:44:45;;;;;;;6.60;3.40;;;;;;;28.32;43.68;97006.41;5054224;28;20238;-49
2022/05/17 10:47:22;;;;;;;4.40;2.60;;;;;;;28.70;42.00;96996.72;5055247;28;20199;-50
2022/05/17 10:50:09;;;;;;;4.30;2.30;;;;;;;28.53;40.69;96999.41;5054847;28;20659;-50
2022/05/17 10:52:44;;;;;;;5.00;2.33;;;;;;;28.36;40.44;96999.41;5052271;28;20286;-50
2022/05/17 10:55:14;;;;;;;4.57;2.25;;;;;;;27.89;38.71;96996.09;5055363;28;20597;-51
2022/05/17 10:57:52;;;;;;;3.85;2.58;;;;;;;27.84;38.74;96985.13;5055526;28;20293;-50
2022/05/17 11:00:22;;;;;;;4.28;2.67;;;;;;;28.24;38.68;96987.75;5055172;28;20234;-50
2022/05/17 11:03:24;;;;;;;4.25;2.67;;;;;;;28.30;41.18;96986.81;5055228;28;20284;-52
2022/05/17 11:06:03;;;;;;;5.38;2.42;;;;;;;28.67;41.16;96985.25;5053438;28;20227;-49
2022/05/17 11:08:52;;;;;;;3.45;2.20;;;;;;;29.05;41.01;96978.19;5055121;28;20211;-50
2022/05/17 11:11:28;;;;;;;3.83;2.00;;;;;;;28.67;40.39;96982.53;5043676;28;20268;-49
2022/05/17 11:13:58;;;;;;;3.13;2.33;;;;;;;27.74;41.17;96970.53;5056973;28;20201;-49
2022/05/17 11:16:28;;;;;;;7.35;2.63;;;;;;;27.28;40.56;96972.28;5072449;28;20259;-51
2022/05/17 11:18:58;;;;;;;3.72;2.42;;;;;;;27.06;41.20;96974.03;5066536;28;20214;-51
2022/05/17 11:21:30;;;;;;;7.15;2.60;;;;;;;27.31;40.82;96965.56;5062456;28;20643;-50
2022/05/17 11:24:04;;;;;;;4.93;2.72;;;;;;;27.52;40.54;96957.63;5055931;28;20206;-50
2022/05/17 11:27:08;;;;;;;4.38;2.67;;;;;;;27.78;40.91;96961.63;5055303;28;20195;-50
2022/05/17 11:29:51;;;;;;;2.30;2.10;;;;;;;27.56;39.03;96952.53;5055098;28;20203;-50
2022/05/17 11:32:24;;;;;;;5.85;2.00;;;;;;;27.72;42.28;96953.63;5042383;28;20513;-51
2022/05/17 11:34:53;;;;;;;3.15;2.30;;;;;;;28.01;41.42;96949.81;5055211;28;20196;-50
2022/05/17 11:37:46;;;;;;;6.00;2.63;;;;;;;27.62;39.70;96949.66;5054934;28;20261;-49
2022/05/17 11:40:54;;;;;;;6.25;2.33;;;;;;;27.84;38.21;96943.53;5054722;28;20211;-50
2022/05/17 11:43:43;;;;;;;6.07;2.50;;;;;;;27.97;38.63;96937.78;5054825;28;20551;-50
2022/05/17 11:46:39;;;;;;;5.30;2.55;;;;;;;27.97;38.35;96937.78;5056839;28;20227;-50
2022/05/17 11:49:41;;;;;;;3.25;2.30;;;;;;;28.38;38.24;96947.44;5058632;28;20230;-50
2022/05/17 11:52:34;;;;;;;3.80;2.58;;;;;;;28.61;40.63;96939.94;5038381;28;20203;-51
2022/05/17 11:55:07;;;;;;;3.85;2.25;;;;;;;28.58;38.32;96935.00;5045605;28;20203;-50
2022/05/17 11:58:03;;;;;;;7.35;2.83;;;;;;;28.32;39.58;96930.25;5058486;28;20199;-51